sensor_id;sensor_type;location;lat;lon;timestamp;P1;durP1;ratioP1;P2;durP2;ratioP2
19149;SDS011;9707;49.158;8.632;2023-06-10T00:02:12;5.28;;;4.45;;
19149;SDS011;9707;49.158;8.632;2023-06-10T00:04:38;6.05;;;4.55;;
19149;SDS011;9707;49.158;8.632;2023-06-10T00:07:04;5.60;;;5.00;;
19149;SDS011;9707;49.158;8.632;2023-06-10T00:09:33;5.35;;;4.70;;
19149;SDS011;9707;49.158;8.632;2023-06-10T00:11:59;4.88;;;4.38;;
19149;SDS011;9707;49.158;8.632;2023-06-10T00:14:25;5.65;;;4.78;;
19149;SDS011;9707;49.158;8.632;2023-06-10T00:16:51;5.35;;;4.82;;
19149;SDS011;9707;49.158;8.632;2023-06-10T00:19:17;5.22;;;4.30;;
19149;SDS011;9707;49.158;8.632;2023-06-10T00:21:43;7.90;;;4.78;;
19149;SDS011;9707;49.158;8.632;2023-06-10T00:24:10;6.10;;;4.57;;
19149;SDS011;9707;49.158;8.632;2023-06-10T00:26:37;6.32;;;4.40;;
19149;SDS011;9707;49.158;8.632;2023-06-10T00:29:03;5.93;;;4.80;;
19149;SDS011;9707;49.158;8.632;2023-06-10T00:31:28;10.95;;;5.18;;
19149;SDS011;9707;49.158;8.632;2023-06-10T00:33:55;4.95;;;4.45;;
19149;SDS011;9707;49.158;8.632;2023-06-10T00:36:20;5.28;;;4.78;;
19149;SDS011;9707;49.158;8.632;2023-06-10T00:38:45;5.93;;;4.57;;
19149;SDS011;9707;49.158;8.632;2023-06-10T00:41:11;5.28;;;4.63;;
19149;SDS011;9707;49.158;8.632;2023-06-10T00:43:36;7.68;;;5.13;;
19149;SDS011;9707;49.158;8.632;2023-06-10T00:46:01;6.65;;;4.53;;
19149;SDS011;9707;49.158;8.632;2023-06-10T00:48:27;6.25;;;4.70;;
19149;SDS011;9707;49.158;8.632;2023-06-10T00:50:52;5.05;;;4.55;;
19149;SDS011;9707;49.158;8.632;2023-06-10T00:53:18;6.07;;;5.22;;
19149;SDS011;9707;49.158;8.632;2023-06-10T00:55:44;6.97;;;4.90;;
19149;SDS011;9707;49.158;8.632;2023-06-10T00:58:10;6.20;;;4.30;;
19149;SDS011;9707;49.158;8.632;2023-06-10T01:00:35;4.70;;;4.30;;
19149;SDS011;9707;49.158;8.632;2023-06-10T01:03:01;7.43;;;5.18;;
19149;SDS011;9707;49.158;8.632;2023-06-10T01:05:27;5.20;;;4.55;;
19149;SDS011;9707;49.158;8.632;2023-06-10T01:07:56;5.15;;;4.63;;
19149;SDS011;9707;49.158;8.632;2023-06-10T01:10:49;7.25;;;4.47;;
19149;SDS011;9707;49.158;8.632;2023-06-10T01:13:18;8.55;;;5.25;;
19149;SDS011;9707;49.158;8.632;2023-06-10T01:15:48;6.35;;;4.47;;
19149;SDS011;9707;49.158;8.632;2023-06-10T01:18:15;5.70;;;4.68;;
19149;SDS011;9707;49.158;8.632;2023-06-10T01:20:41;5.72;;;5.10;;
19149;SDS011;9707;49.158;8.632;2023-06-10T01:23:08;6.25;;;4.72;;
19149;SDS011;9707;49.158;8.632;2023-06-10T01:25:36;5.60;;;4.80;;
19149;SDS011;9707;49.158;8.632;2023-06-10T01:33:58;6.18;;;5.10;;
19149;SDS011;9707;49.158;8.632;2023-06-10T01:36:25;8.07;;;5.18;;
19149;SDS011;9707;49.158;8.632;2023-06-10T01:38:51;5.53;;;5.03;;
19149;SDS011;9707;49.158;8.632;2023-06-10T01:41:18;6.00;;;5.40;;
19149;SDS011;9707;49.158;8.632;2023-06-10T01:43:46;6.90;;;4.65;;
19149;SDS011;9707;49.158;8.632;2023-06-10T01:46:12;13.02;;;5.85;;
19149;SDS011;9707;49.158;8.632;2023-06-10T01:48:38;6.63;;;5.13;;
19149;SDS011;9707;49.158;8.632;2023-06-10T01:51:03;5.63;;;4.97;;
19149;SDS011;9707;49.158;8.632;2023-06-10T01:53:30;9.70;;;5.35;;
19149;SDS011;9707;49.158;8.632;2023-06-10T01:55:55;7.32;;;5.65;;
19149;SDS011;9707;49.158;8.632;2023-06-10T01:58:20;5.50;;;4.95;;
19149;SDS011;9707;49.158;8.632;2023-06-10T02:00:46;5.25;;;4.75;;
19149;SDS011;9707;49.158;8.632;2023-06-10T02:03:11;5.32;;;4.63;;
19149;SDS011;9707;49.158;8.632;2023-06-10T02:05:37;8.18;;;5.28;;
19149;SDS011;9707;49.158;8.632;2023-06-10T02:08:02;5.43;;;4.93;;
19149;SDS011;9707;49.158;8.632;2023-06-10T02:10:28;6.00;;;4.75;;
19149;SDS011;9707;49.158;8.632;2023-06-10T02:12:53;5.15;;;4.60;;
19149;SDS011;9707;49.158;8.632;2023-06-10T02:15:18;5.95;;;5.30;;
19149;SDS011;9707;49.158;8.632;2023-06-10T02:17:43;5.32;;;4.85;;
19149;SDS011;9707;49.158;8.632;2023-06-10T02:20:09;6.00;;;5.28;;
19149;SDS011;9707;49.158;8.632;2023-06-10T02:22:35;6.40;;;5.32;;
19149;SDS011;9707;49.158;8.632;2023-06-10T02:25:01;7.88;;;5.40;;
19149;SDS011;9707;49.158;8.632;2023-06-10T02:27:26;8.63;;;5.47;;
19149;SDS011;9707;49.158;8.632;2023-06-10T02:29:52;6.35;;;5.35;;
19149;SDS011;9707;49.158;8.632;2023-06-10T02:32:17;7.32;;;5.90;;
19149;SDS011;9707;49.158;8.632;2023-06-10T02:34:42;5.85;;;5.25;;
19149;SDS011;9707;49.158;8.632;2023-06-10T02:37:08;6.47;;;5.55;;
19149;SDS011;9707;49.158;8.632;2023-06-10T02:39:34;8.13;;;4.95;;
19149;SDS011;9707;49.158;8.632;2023-06-10T02:41:59;7.22;;;5.53;;
19149;SDS011;9707;49.158;8.632;2023-06-10T02:44:25;6.80;;;4.80;;
19149;SDS011;9707;49.158;8.632;2023-06-10T02:46:50;5.05;;;4.55;;
19149;SDS011;9707;49.158;8.632;2023-06-10T02:49:15;6.00;;;5.30;;
19149;SDS011;9707;49.158;8.632;2023-06-10T02:51:41;6.35;;;5.20;;
19149;SDS011;9707;49.158;8.632;2023-06-10T02:54:06;6.13;;;5.03;;
19149;SDS011;9707;49.158;8.632;2023-06-10T02:56:31;5.63;;;5.05;;
19149;SDS011;9707;49.158;8.632;2023-06-10T02:58:58;7.38;;;4.80;;
19149;SDS011;9707;49.158;8.632;2023-06-10T03:01:23;7.57;;;5.03;;
19149;SDS011;9707;49.158;8.632;2023-06-10T03:03:48;5.70;;;5.07;;
19149;SDS011;9707;49.158;8.632;2023-06-10T03:06:15;6.32;;;5.05;;
19149;SDS011;9707;49.158;8.632;2023-06-10T03:08:41;5.18;;;4.65;;
19149;SDS011;9707;49.158;8.632;2023-06-10T03:11:06;6.10;;;4.50;;
19149;SDS011;9707;49.158;8.632;2023-06-10T03:13:32;6.35;;;4.95;;
19149;SDS011;9707;49.158;8.632;2023-06-10T03:15:57;7.50;;;4.93;;
19149;SDS011;9707;49.158;8.632;2023-06-10T03:18:25;6.18;;;4.95;;
19149;SDS011;9707;49.158;8.632;2023-06-10T03:20:51;6.32;;;5.25;;
19149;SDS011;9707;49.158;8.632;2023-06-10T03:23:17;6.22;;;5.60;;
19149;SDS011;9707;49.158;8.632;2023-06-10T03:25:43;5.60;;;5.07;;
19149;SDS011;9707;49.158;8.632;2023-06-10T03:28:09;6.75;;;5.22;;
19149;SDS011;9707;49.158;8.632;2023-06-10T03:30:35;5.78;;;4.80;;
19149;SDS011;9707;49.158;8.632;2023-06-10T03:33:00;6.75;;;4.93;;
19149;SDS011;9707;49.158;8.632;2023-06-10T03:35:25;6.95;;;4.93;;
19149;SDS011;9707;49.158;8.632;2023-06-10T03:37:51;7.53;;;5.20;;
19149;SDS011;9707;49.158;8.632;2023-06-10T03:40:16;6.05;;;4.80;;
19149;SDS011;9707;49.158;8.632;2023-06-10T03:42:41;6.15;;;5.00;;
19149;SDS011;9707;49.158;8.632;2023-06-10T03:45:08;6.88;;;5.10;;
19149;SDS011;9707;49.158;8.632;2023-06-10T03:47:34;6.72;;;4.93;;
19149;SDS011;9707;49.158;8.632;2023-06-10T03:50:01;9.88;;;5.43;;
19149;SDS011;9707;49.158;8.632;2023-06-10T03:52:26;8.77;;;5.13;;
19149;SDS011;9707;49.158;8.632;2023-06-10T03:54:52;5.88;;;4.38;;
19149;SDS011;9707;49.158;8.632;2023-06-10T03:57:17;7.18;;;4.68;;
19149;SDS011;9707;49.158;8.632;2023-06-10T03:59:42;6.88;;;4.53;;
19149;SDS011;9707;49.158;8.632;2023-06-10T04:02:07;5.65;;;4.70;;
19149;SDS011;9707;49.158;8.632;2023-06-10T04:04:33;5.53;;;4.65;;
19149;SDS011;9707;49.158;8.632;2023-06-10T04:06:59;6.93;;;5.05;;
19149;SDS011;9707;49.158;8.632;2023-06-10T04:09:24;6.22;;;5.03;;
19149;SDS011;9707;49.158;8.632;2023-06-10T04:11:50;6.35;;;4.97;;
19149;SDS011;9707;49.158;8.632;2023-06-10T04:14:16;6.78;;;4.50;;
19149;SDS011;9707;49.158;8.632;2023-06-10T04:16:41;5.93;;;4.97;;
19149;SDS011;9707;49.158;8.632;2023-06-10T04:19:07;6.20;;;4.55;;
19149;SDS011;9707;49.158;8.632;2023-06-10T04:21:32;5.10;;;4.55;;
19149;SDS011;9707;49.158;8.632;2023-06-10T04:23:57;6.68;;;5.13;;
19149;SDS011;9707;49.158;8.632;2023-06-10T04:26:23;6.72;;;5.32;;
19149;SDS011;9707;49.158;8.632;2023-06-10T04:28:48;6.68;;;4.25;;
19149;SDS011;9707;49.158;8.632;2023-06-10T04:31:14;7.40;;;5.03;;
19149;SDS011;9707;49.158;8.632;2023-06-10T04:33:39;5.60;;;5.05;;
19149;SDS011;9707;49.158;8.632;2023-06-10T04:36:05;7.63;;;4.47;;
19149;SDS011;9707;49.158;8.632;2023-06-10T04:38:31;5.93;;;4.35;;
19149;SDS011;9707;49.158;8.632;2023-06-10T04:40:57;5.68;;;4.40;;
19149;SDS011;9707;49.158;8.632;2023-06-10T04:43:22;7.90;;;4.90;;
19149;SDS011;9707;49.158;8.632;2023-06-10T04:45:47;6.03;;;4.75;;
19149;SDS011;9707;49.158;8.632;2023-06-10T04:48:13;5.25;;;4.70;;
19149;SDS011;9707;49.158;8.632;2023-06-10T04:50:38;5.15;;;4.55;;
19149;SDS011;9707;49.158;8.632;2023-06-10T04:53:04;5.97;;;5.38;;
19149;SDS011;9707;49.158;8.632;2023-06-10T04:55:29;5.10;;;4.60;;
19149;SDS011;9707;49.158;8.632;2023-06-10T04:57:55;7.43;;;4.93;;
19149;SDS011;9707;49.158;8.632;2023-06-10T05:00:20;6.88;;;4.70;;
19149;SDS011;9707;49.158;8.632;2023-06-10T05:02:45;5.82;;;4.70;;
19149;SDS011;9707;49.158;8.632;2023-06-10T05:05:14;6.25;;;4.78;;
19149;SDS011;9707;49.158;8.632;2023-06-10T05:07:40;4.97;;;4.38;;
19149;SDS011;9707;49.158;8.632;2023-06-10T05:10:06;7.22;;;5.05;;
19149;SDS011;9707;49.158;8.632;2023-06-10T05:12:32;5.13;;;4.32;;
19149;SDS011;9707;49.158;8.632;2023-06-10T05:14:57;5.20;;;4.50;;
19149;SDS011;9707;49.158;8.632;2023-06-10T05:17:22;6.18;;;4.50;;
19149;SDS011;9707;49.158;8.632;2023-06-10T05:19:48;6.53;;;4.90;;
19149;SDS011;9707;49.158;8.632;2023-06-10T05:22:13;6.32;;;5.00;;
19149;SDS011;9707;49.158;8.632;2023-06-10T05:24:39;5.18;;;4.25;;
19149;SDS011;9707;49.158;8.632;2023-06-10T05:27:05;5.20;;;4.55;;
19149;SDS011;9707;49.158;8.632;2023-06-10T05:29:31;5.00;;;4.57;;
19149;SDS011;9707;49.158;8.632;2023-06-10T05:31:56;5.28;;;4.78;;
19149;SDS011;9707;49.158;8.632;2023-06-10T05:34:25;5.57;;;4.90;;
19149;SDS011;9707;49.158;8.632;2023-06-10T05:36:50;6.85;;;4.55;;
19149;SDS011;9707;49.158;8.632;2023-06-10T05:39:15;6.47;;;4.80;;
19149;SDS011;9707;49.158;8.632;2023-06-10T05:41:41;6.07;;;5.47;;
19149;SDS011;9707;49.158;8.632;2023-06-10T05:44:06;6.15;;;5.05;;
19149;SDS011;9707;49.158;8.632;2023-06-10T05:46:31;5.68;;;5.07;;
19149;SDS011;9707;49.158;8.632;2023-06-10T05:48:57;7.00;;;5.22;;
19149;SDS011;9707;49.158;8.632;2023-06-10T05:51:22;5.45;;;4.88;;
19149;SDS011;9707;49.158;8.632;2023-06-10T05:53:47;7.80;;;5.35;;
19149;SDS011;9707;49.158;8.632;2023-06-10T05:56:13;5.65;;;4.47;;
19149;SDS011;9707;49.158;8.632;2023-06-10T05:58:39;5.68;;;4.85;;
19149;SDS011;9707;49.158;8.632;2023-06-10T06:01:04;8.35;;;5.35;;
19149;SDS011;9707;49.158;8.632;2023-06-10T06:03:30;7.70;;;5.15;;
19149;SDS011;9707;49.158;8.632;2023-06-10T06:05:55;6.95;;;5.43;;
19149;SDS011;9707;49.158;8.632;2023-06-10T06:08:20;6.32;;;5.03;;
19149;SDS011;9707;49.158;8.632;2023-06-10T06:10:46;4.88;;;4.05;;
19149;SDS011;9707;49.158;8.632;2023-06-10T06:13:12;7.78;;;5.10;;
19149;SDS011;9707;49.158;8.632;2023-06-10T06:15:38;7.72;;;5.07;;
19149;SDS011;9707;49.158;8.632;2023-06-10T06:18:03;6.13;;;5.07;;
19149;SDS011;9707;49.158;8.632;2023-06-10T06:20:28;5.40;;;4.90;;
19149;SDS011;9707;49.158;8.632;2023-06-10T06:22:54;6.15;;;4.50;;
19149;SDS011;9707;49.158;8.632;2023-06-10T06:25:19;5.00;;;3.90;;
19149;SDS011;9707;49.158;8.632;2023-06-10T06:27:47;5.03;;;4.63;;
19149;SDS011;9707;49.158;8.632;2023-06-10T06:30:13;5.50;;;4.93;;
19149;SDS011;9707;49.158;8.632;2023-06-10T06:32:38;5.53;;;4.60;;
19149;SDS011;9707;49.158;8.632;2023-06-10T06:35:03;6.18;;;4.50;;
19149;SDS011;9707;49.158;8.632;2023-06-10T06:37:32;6.45;;;4.97;;
19149;SDS011;9707;49.158;8.632;2023-06-10T06:39:57;7.05;;;4.20;;
19149;SDS011;9707;49.158;8.632;2023-06-10T06:42:23;7.40;;;4.75;;
19149;SDS011;9707;49.158;8.632;2023-06-10T06:44:48;4.35;;;3.95;;
19149;SDS011;9707;49.158;8.632;2023-06-10T06:47:14;7.43;;;4.70;;
19149;SDS011;9707;49.158;8.632;2023-06-10T06:49:39;5.18;;;4.65;;
19149;SDS011;9707;49.158;8.632;2023-06-10T06:52:04;5.70;;;3.80;;
19149;SDS011;9707;49.158;8.632;2023-06-10T06:54:30;4.43;;;4.03;;
19149;SDS011;9707;49.158;8.632;2023-06-10T06:56:56;6.35;;;4.00;;
19149;SDS011;9707;49.158;8.632;2023-06-10T06:59:21;4.45;;;4.05;;
19149;SDS011;9707;49.158;8.632;2023-06-10T07:01:47;6.88;;;4.22;;
19149;SDS011;9707;49.158;8.632;2023-06-10T07:04:14;4.85;;;4.35;;
19149;SDS011;9707;49.158;8.632;2023-06-10T07:06:40;5.45;;;4.40;;
19149;SDS011;9707;49.158;8.632;2023-06-10T07:09:05;4.13;;;3.70;;
19149;SDS011;9707;49.158;8.632;2023-06-10T07:11:32;4.38;;;3.97;;
19149;SDS011;9707;49.158;8.632;2023-06-10T07:13:57;4.05;;;3.60;;
19149;SDS011;9707;49.158;8.632;2023-06-10T07:16:23;5.10;;;3.97;;
19149;SDS011;9707;49.158;8.632;2023-06-10T07:18:48;4.68;;;3.60;;
19149;SDS011;9707;49.158;8.632;2023-06-10T07:21:13;4.20;;;3.50;;
19149;SDS011;9707;49.158;8.632;2023-06-10T07:23:41;4.28;;;3.88;;
19149;SDS011;9707;49.158;8.632;2023-06-10T07:26:07;4.65;;;3.95;;
19149;SDS011;9707;49.158;8.632;2023-06-10T07:28:35;4.70;;;4.13;;
19149;SDS011;9707;49.158;8.632;2023-06-10T07:31:01;5.07;;;4.38;;
19149;SDS011;9707;49.158;8.632;2023-06-10T07:33:26;4.88;;;4.03;;
19149;SDS011;9707;49.158;8.632;2023-06-10T07:35:52;4.95;;;3.70;;
19149;SDS011;9707;49.158;8.632;2023-06-10T07:38:17;4.43;;;4.00;;
19149;SDS011;9707;49.158;8.632;2023-06-10T07:40:42;5.18;;;4.05;;
19149;SDS011;9707;49.158;8.632;2023-06-10T07:43:08;4.63;;;4.13;;
19149;SDS011;9707;49.158;8.632;2023-06-10T07:45:33;5.40;;;3.83;;
19149;SDS011;9707;49.158;8.632;2023-06-10T07:47:58;5.95;;;4.20;;
19149;SDS011;9707;49.158;8.632;2023-06-10T07:50:23;8.18;;;5.40;;
19149;SDS011;9707;49.158;8.632;2023-06-10T07:52:49;4.15;;;3.70;;
19149;SDS011;9707;49.158;8.632;2023-06-10T07:55:14;4.15;;;3.75;;
19149;SDS011;9707;49.158;8.632;2023-06-10T07:57:39;4.22;;;3.83;;
19149;SDS011;9707;49.158;8.632;2023-06-10T08:00:05;4.18;;;3.78;;
19149;SDS011;9707;49.158;8.632;2023-06-10T08:02:31;4.22;;;3.83;;
19149;SDS011;9707;49.158;8.632;2023-06-10T08:04:56;4.57;;;3.60;;
19149;SDS011;9707;49.158;8.632;2023-06-10T08:07:21;4.65;;;4.20;;
19149;SDS011;9707;49.158;8.632;2023-06-10T08:09:47;4.30;;;3.90;;
19149;SDS011;9707;49.158;8.632;2023-06-10T08:12:12;5.72;;;4.15;;
19149;SDS011;9707;49.158;8.632;2023-06-10T08:14:38;6.57;;;3.88;;
19149;SDS011;9707;49.158;8.632;2023-06-10T08:17:03;5.00;;;4.00;;
19149;SDS011;9707;49.158;8.632;2023-06-10T08:19:30;4.35;;;3.58;;
19149;SDS011;9707;49.158;8.632;2023-06-10T08:21:56;4.25;;;3.78;;
19149;SDS011;9707;49.158;8.632;2023-06-10T08:24:21;7.68;;;4.13;;
19149;SDS011;9707;49.158;8.632;2023-06-10T08:26:46;5.95;;;4.25;;
19149;SDS011;9707;49.158;8.632;2023-06-10T08:29:12;4.93;;;3.72;;
19149;SDS011;9707;49.158;8.632;2023-06-10T08:31:39;4.18;;;3.67;;
19149;SDS011;9707;49.158;8.632;2023-06-10T08:34:06;4.15;;;3.70;;
19149;SDS011;9707;49.158;8.632;2023-06-10T08:36:31;3.80;;;3.50;;
19149;SDS011;9707;49.158;8.632;2023-06-10T08:38:57;5.05;;;4.22;;
19149;SDS011;9707;49.158;8.632;2023-06-10T08:41:22;3.50;;;3.20;;
19149;SDS011;9707;49.158;8.632;2023-06-10T08:43:59;5.18;;;3.83;;
19149;SDS011;9707;49.158;8.632;2023-06-10T08:46:31;5.65;;;3.80;;
19149;SDS011;9707;49.158;8.632;2023-06-10T08:48:57;3.88;;;3.42;;
19149;SDS011;9707;49.158;8.632;2023-06-10T08:51:28;4.75;;;4.25;;
19149;SDS011;9707;49.158;8.632;2023-06-10T08:54:02;5.13;;;3.95;;
19149;SDS011;9707;49.158;8.632;2023-06-10T08:56:30;4.90;;;4.28;;
19149;SDS011;9707;49.158;8.632;2023-06-10T08:59:02;7.22;;;4.38;;
19149;SDS011;9707;49.158;8.632;2023-06-10T09:01:28;4.50;;;3.42;;
19149;SDS011;9707;49.158;8.632;2023-06-10T09:03:55;6.55;;;4.35;;
19149;SDS011;9707;49.158;8.632;2023-06-10T09:06:21;4.47;;;4.07;;
19149;SDS011;9707;49.158;8.632;2023-06-10T09:08:47;5.60;;;3.97;;
19149;SDS011;9707;49.158;8.632;2023-06-10T09:11:12;8.52;;;4.55;;
19149;SDS011;9707;49.158;8.632;2023-06-10T09:13:37;3.60;;;2.95;;
19149;SDS011;9707;49.158;8.632;2023-06-10T09:16:03;4.72;;;4.32;;
19149;SDS011;9707;49.158;8.632;2023-06-10T09:18:28;4.65;;;4.13;;
19149;SDS011;9707;49.158;8.632;2023-06-10T09:20:54;4.38;;;3.97;;
19149;SDS011;9707;49.158;8.632;2023-06-10T09:23:20;7.28;;;4.28;;
19149;SDS011;9707;49.158;8.632;2023-06-10T09:25:46;4.55;;;3.95;;
19149;SDS011;9707;49.158;8.632;2023-06-10T09:28:21;5.28;;;4.13;;
19149;SDS011;9707;49.158;8.632;2023-06-10T09:30:46;4.38;;;3.95;;
19149;SDS011;9707;49.158;8.632;2023-06-10T09:33:12;4.80;;;3.70;;
19149;SDS011;9707;49.158;8.632;2023-06-10T09:35:46;6.88;;;3.80;;
19149;SDS011;9707;49.158;8.632;2023-06-10T09:38:19;5.10;;;4.53;;
19149;SDS011;9707;49.158;8.632;2023-06-10T09:40:50;3.53;;;3.20;;
19149;SDS011;9707;49.158;8.632;2023-06-10T09:43:18;4.32;;;3.60;;
19149;SDS011;9707;49.158;8.632;2023-06-10T09:45:44;4.05;;;3.65;;
19149;SDS011;9707;49.158;8.632;2023-06-10T09:48:12;5.30;;;4.60;;
19149;SDS011;9707;49.158;8.632;2023-06-10T09:50:44;5.75;;;4.18;;
19149;SDS011;9707;49.158;8.632;2023-06-10T09:53:10;4.57;;;4.18;;
19149;SDS011;9707;49.158;8.632;2023-06-10T09:55:39;5.80;;;4.85;;
19149;SDS011;9707;49.158;8.632;2023-06-10T09:58:06;5.25;;;3.85;;
19149;SDS011;9707;49.158;8.632;2023-06-10T10:00:32;5.95;;;4.13;;
19149;SDS011;9707;49.158;8.632;2023-06-10T10:02:58;4.60;;;4.13;;
19149;SDS011;9707;49.158;8.632;2023-06-10T10:05:24;6.25;;;3.58;;
19149;SDS011;9707;49.158;8.632;2023-06-10T10:07:50;4.82;;;3.63;;
19149;SDS011;9707;49.158;8.632;2023-06-10T10:10:17;4.90;;;3.92;;
19149;SDS011;9707;49.158;8.632;2023-06-10T10:12:43;3.47;;;3.13;;
19149;SDS011;9707;49.158;8.632;2023-06-10T10:15:11;5.05;;;3.40;;
19149;SDS011;9707;49.158;8.632;2023-06-10T10:17:37;5.10;;;4.03;;
19149;SDS011;9707;49.158;8.632;2023-06-10T10:20:05;7.53;;;4.35;;
19149;SDS011;9707;49.158;8.632;2023-06-10T10:22:43;4.15;;;3.83;;
19149;SDS011;9707;49.158;8.632;2023-06-10T10:25:12;4.90;;;4.40;;
19149;SDS011;9707;49.158;8.632;2023-06-10T10:27:43;7.13;;;4.05;;
19149;SDS011;9707;49.158;8.632;2023-06-10T10:30:13;4.95;;;4.45;;
19149;SDS011;9707;49.158;8.632;2023-06-10T10:32:50;4.15;;;3.40;;
19149;SDS011;9707;49.158;8.632;2023-06-10T10:35:22;6.03;;;4.93;;
19149;SDS011;9707;49.158;8.632;2023-06-10T10:37:51;4.30;;;3.88;;
19149;SDS011;9707;49.158;8.632;2023-06-10T10:40:18;3.90;;;3.40;;
19149;SDS011;9707;49.158;8.632;2023-06-10T10:42:44;5.00;;;4.50;;
19149;SDS011;9707;49.158;8.632;2023-06-10T10:45:10;6.68;;;4.57;;
19149;SDS011;9707;49.158;8.632;2023-06-10T10:47:36;4.47;;;3.97;;
19149;SDS011;9707;49.158;8.632;2023-06-10T10:50:03;5.13;;;4.28;;
19149;SDS011;9707;49.158;8.632;2023-06-10T10:52:46;5.07;;;3.92;;
19149;SDS011;9707;49.158;8.632;2023-06-10T10:55:24;4.28;;;3.88;;
19149;SDS011;9707;49.158;8.632;2023-06-10T10:57:53;4.28;;;3.85;;
19149;SDS011;9707;49.158;8.632;2023-06-10T11:00:32;4.45;;;4.05;;
19149;SDS011;9707;49.158;8.632;2023-06-10T11:02:59;5.10;;;4.60;;
19149;SDS011;9707;49.158;8.632;2023-06-10T11:05:44;4.68;;;4.28;;
19149;SDS011;9707;49.158;8.632;2023-06-10T11:08:13;5.57;;;4.10;;
19149;SDS011;9707;49.158;8.632;2023-06-10T11:10:39;4.18;;;3.80;;
19149;SDS011;9707;49.158;8.632;2023-06-10T11:13:07;4.28;;;3.88;;
19149;SDS011;9707;49.158;8.632;2023-06-10T11:15:37;5.82;;;4.30;;
19149;SDS011;9707;49.158;8.632;2023-06-10T11:20:51;4.60;;;3.80;;
19149;SDS011;9707;49.158;8.632;2023-06-10T11:28:40;3.47;;;3.15;;
19149;SDS011;9707;49.158;8.632;2023-06-10T11:31:07;3.40;;;3.10;;
19149;SDS011;9707;49.158;8.632;2023-06-10T11:33:33;8.32;;;3.55;;
19149;SDS011;9707;49.158;8.632;2023-06-10T11:36:05;4.07;;;3.25;;
19149;SDS011;9707;49.158;8.632;2023-06-10T11:38:32;6.95;;;4.30;;
19149;SDS011;9707;49.158;8.632;2023-06-10T11:40:57;4.90;;;4.07;;
19149;SDS011;9707;49.158;8.632;2023-06-10T11:43:23;4.47;;;4.07;;
19149;SDS011;9707;49.158;8.632;2023-06-10T11:45:53;3.42;;;3.13;;
19149;SDS011;9707;49.158;8.632;2023-06-10T11:48:20;5.22;;;3.78;;
19149;SDS011;9707;49.158;8.632;2023-06-10T11:50:45;7.85;;;3.45;;
19149;SDS011;9707;49.158;8.632;2023-06-10T11:53:11;4.10;;;3.70;;
19149;SDS011;9707;49.158;8.632;2023-06-10T11:58:18;4.05;;;3.65;;
19149;SDS011;9707;49.158;8.632;2023-06-10T12:00:48;3.88;;;3.20;;
19149;SDS011;9707;49.158;8.632;2023-06-10T12:03:15;4.28;;;3.22;;
19149;SDS011;9707;49.158;8.632;2023-06-10T12:05:52;6.80;;;4.07;;
19149;SDS011;9707;49.158;8.632;2023-06-10T12:08:22;4.47;;;3.58;;
19149;SDS011;9707;49.158;8.632;2023-06-10T12:10:48;4.10;;;3.40;;
19149;SDS011;9707;49.158;8.632;2023-06-10T12:13:13;4.00;;;3.55;;
19149;SDS011;9707;49.158;8.632;2023-06-10T12:15:38;4.13;;;3.67;;
19149;SDS011;9707;49.158;8.632;2023-06-10T12:18:03;4.75;;;4.20;;
19149;SDS011;9707;49.158;8.632;2023-06-10T12:20:30;4.75;;;3.88;;
19149;SDS011;9707;49.158;8.632;2023-06-10T12:23:00;4.53;;;4.03;;
19149;SDS011;9707;49.158;8.632;2023-06-10T12:25:26;4.03;;;3.63;;
19149;SDS011;9707;49.158;8.632;2023-06-10T12:27:54;5.72;;;4.10;;
19149;SDS011;9707;49.158;8.632;2023-06-10T12:30:21;4.72;;;3.40;;
19149;SDS011;9707;49.158;8.632;2023-06-10T12:32:48;4.22;;;3.80;;
19149;SDS011;9707;49.158;8.632;2023-06-10T12:35:17;5.07;;;4.03;;
19149;SDS011;9707;49.158;8.632;2023-06-10T12:37:57;5.05;;;4.28;;
19149;SDS011;9707;49.158;8.632;2023-06-10T12:42:54;4.82;;;3.53;;
19149;SDS011;9707;49.158;8.632;2023-06-10T12:45:33;3.67;;;3.38;;
19149;SDS011;9707;49.158;8.632;2023-06-10T12:48:09;3.78;;;3.38;;
19149;SDS011;9707;49.158;8.632;2023-06-10T12:50:36;3.67;;;3.35;;
19149;SDS011;9707;49.158;8.632;2023-06-10T12:53:04;4.07;;;3.67;;
19149;SDS011;9707;49.158;8.632;2023-06-10T12:55:30;3.50;;;3.20;;
19149;SDS011;9707;49.158;8.632;2023-06-10T12:57:57;4.40;;;3.42;;
19149;SDS011;9707;49.158;8.632;2023-06-10T13:00:22;3.55;;;3.25;;
19149;SDS011;9707;49.158;8.632;2023-06-10T13:02:51;3.50;;;3.20;;
19149;SDS011;9707;49.158;8.632;2023-06-10T13:05:17;5.00;;;3.42;;
19149;SDS011;9707;49.158;8.632;2023-06-10T13:07:43;3.65;;;3.35;;
19149;SDS011;9707;49.158;8.632;2023-06-10T13:10:09;4.47;;;3.20;;
19149;SDS011;9707;49.158;8.632;2023-06-10T13:12:34;3.33;;;3.03;;
19149;SDS011;9707;49.158;8.632;2023-06-10T13:15:01;3.53;;;3.00;;
19149;SDS011;9707;49.158;8.632;2023-06-10T13:17:26;6.45;;;3.75;;
19149;SDS011;9707;49.158;8.632;2023-06-10T13:19:51;4.78;;;3.25;;
19149;SDS011;9707;49.158;8.632;2023-06-10T13:22:17;3.38;;;3.08;;
19149;SDS011;9707;49.158;8.632;2023-06-10T13:24:44;4.53;;;3.60;;
19149;SDS011;9707;49.158;8.632;2023-06-10T13:27:09;4.68;;;3.40;;
19149;SDS011;9707;49.158;8.632;2023-06-10T13:29:34;4.38;;;3.50;;
19149;SDS011;9707;49.158;8.632;2023-06-10T13:32:00;5.35;;;3.20;;
19149;SDS011;9707;49.158;8.632;2023-06-10T13:34:25;3.88;;;3.42;;
19149;SDS011;9707;49.158;8.632;2023-06-10T13:36:50;5.05;;;3.45;;
19149;SDS011;9707;49.158;8.632;2023-06-10T13:39:15;6.75;;;3.17;;
19149;SDS011;9707;49.158;8.632;2023-06-10T13:41:41;3.60;;;3.10;;
19149;SDS011;9707;49.158;8.632;2023-06-10T13:44:06;3.42;;;3.13;;
19149;SDS011;9707;49.158;8.632;2023-06-10T13:46:32;3.55;;;3.20;;
19149;SDS011;9707;49.158;8.632;2023-06-10T13:48:57;3.55;;;2.88;;
19149;SDS011;9707;49.158;8.632;2023-06-10T13:51:22;10.82;;;3.60;;
19149;SDS011;9707;49.158;8.632;2023-06-10T13:53:48;4.80;;;3.47;;
19149;SDS011;9707;49.158;8.632;2023-06-10T13:56:13;3.03;;;2.70;;
19149;SDS011;9707;49.158;8.632;2023-06-10T13:58:39;3.33;;;2.83;;
19149;SDS011;9707;49.158;8.632;2023-06-10T14:01:06;3.20;;;2.90;;
19149;SDS011;9707;49.158;8.632;2023-06-10T14:03:31;4.45;;;2.78;;
19149;SDS011;9707;49.158;8.632;2023-06-10T14:05:57;2.85;;;2.65;;
19149;SDS011;9707;49.158;8.632;2023-06-10T14:08:22;3.95;;;3.05;;
19149;SDS011;9707;49.158;8.632;2023-06-10T14:10:48;3.10;;;2.80;;
19149;SDS011;9707;49.158;8.632;2023-06-10T14:13:15;3.10;;;2.70;;
19149;SDS011;9707;49.158;8.632;2023-06-10T14:15:41;2.95;;;2.53;;
19149;SDS011;9707;49.158;8.632;2023-06-10T14:18:06;5.93;;;3.08;;
19149;SDS011;9707;49.158;8.632;2023-06-10T14:20:31;3.35;;;3.05;;
19149;SDS011;9707;49.158;8.632;2023-06-10T14:22:57;4.00;;;2.70;;
19149;SDS011;9707;49.158;8.632;2023-06-10T14:25:23;3.47;;;2.78;;
19149;SDS011;9707;49.158;8.632;2023-06-10T14:27:48;3.25;;;2.95;;
19149;SDS011;9707;49.158;8.632;2023-06-10T14:30:13;4.28;;;3.50;;
19149;SDS011;9707;49.158;8.632;2023-06-10T14:32:39;3.35;;;3.05;;
19149;SDS011;9707;49.158;8.632;2023-06-10T14:35:05;3.92;;;2.88;;
19149;SDS011;9707;49.158;8.632;2023-06-10T14:37:30;3.08;;;2.78;;
19149;SDS011;9707;49.158;8.632;2023-06-10T14:39:55;3.13;;;2.85;;
19149;SDS011;9707;49.158;8.632;2023-06-10T14:42:21;3.30;;;3.00;;
19149;SDS011;9707;49.158;8.632;2023-06-10T14:44:46;4.25;;;2.92;;
19149;SDS011;9707;49.158;8.632;2023-06-10T14:47:11;4.47;;;2.42;;
19149;SDS011;9707;49.158;8.632;2023-06-10T14:49:37;3.22;;;2.60;;
19149;SDS011;9707;49.158;8.632;2023-06-10T14:52:02;3.70;;;3.10;;
19149;SDS011;9707;49.158;8.632;2023-06-10T14:54:27;4.00;;;2.60;;
19149;SDS011;9707;49.158;8.632;2023-06-10T14:56:53;3.78;;;2.88;;
19149;SDS011;9707;49.158;8.632;2023-06-10T14:59:18;3.90;;;3.20;;
19149;SDS011;9707;49.158;8.632;2023-06-10T15:01:43;4.35;;;2.72;;
19149;SDS011;9707;49.158;8.632;2023-06-10T15:04:09;3.10;;;2.60;;
19149;SDS011;9707;49.158;8.632;2023-06-10T15:06:34;2.53;;;2.30;;
19149;SDS011;9707;49.158;8.632;2023-06-10T15:08:59;2.67;;;2.47;;
19149;SDS011;9707;49.158;8.632;2023-06-10T15:11:24;3.13;;;2.80;;
19149;SDS011;9707;49.158;8.632;2023-06-10T15:13:50;3.08;;;2.65;;
19149;SDS011;9707;49.158;8.632;2023-06-10T15:16:16;5.82;;;2.88;;